Terminal Aerodrome Forecast
Issued by NWS Boston, MA

Home | Current Version | Previous Version | Text Only | Print | Product List | Glossary On
Versions: 1 2 3 4 5 6 7 8 9 10 11 12 13 14 15 16 17 18 19 20 21 22 23 24 25 26 27 28 29 30 31 32 33 34 35 36 37 38 39 40 41 42 43 44 45
000
FTUS41 KBOX 202320
TAFBOS
TAF
KBOS 202320Z 2100/2206 21011KT P6SM BKN050
     FM210900 17008KT 5SM BR OVC015
     FM211200 17010KT 3SM BR BKN008
     FM211500 16010KT P6SM BKN015
     FM211800 16009KT P6SM BKN025
     FM220000 15005KT P6SM BKN008=

USA.gov is the U.S. government's official web portal to all federal, state and local government web resources and services.